^^
Station Historical Data
Daily Summary for March 24, 2017 Units:  Metric    English   Both
« Previous Day
Next Day »
Daily Weekly Monthly Yearly Custom
  High: Low: Average:
Temperature: 25.9 °C 13.7 °C 18.3 °C
Dew Point: 12.2 °C 6.4 °C 10.4 °C
Humidity: 85% 31% 64%
Wind Speed: 27.4km/h 4.7km/h 15.8km/h
Wind Gust: 30.6km/h - -
Wind- - SSW
Pressure: 1015.5 hPa 1012.8 hPa -
Precipitation: 0 mm    
Historical Graphs
 
 
Tabular Data for March 24, 2017
Time Temperature Dew Point Pressure Wind Wind Speed Wind Gust Humidity Rainfall Rate (Hourly) solar Conditions
01:49 17.1 °C 12 °C 1013.4 hPa South 13 km/h 17.7 km/h 72% 0 mm 0.0 W/m2
01:54 17.1 °C 12.2 °C 1013.4 hPa South 14.3 km/h 17.7 km/h 73% 0 mm 0.0 W/m2
01:59 17 °C 12.1 °C 1013.4 hPa SSW 17.7 km/h 24.1 km/h 73% 0 mm 0.0 W/m2
02:09 16.8 °C 12.1 °C 1013.4 hPa South 19.5 km/h 20.9 km/h 74% 0 mm 0.0 W/m2
02:14 16.7 °C 12 °C 1013.4 hPa SSW 19.5 km/h 20.9 km/h 74% 0 mm 0.0 W/m2
02:24 16.4 °C 11.8 °C 1013.4 hPa South 22.7 km/h 24.1 km/h 74% 0 mm 0.0 W/m2
02:29 16.3 °C 11.7 °C 1013.4 hPa South 19.5 km/h 20.9 km/h 74% 0 mm 0.0 W/m2
02:34 16.2 °C 11.8 °C 1013.4 hPa South 11.1 km/h 19.3 km/h 75% 0 mm 0.0 W/m2
02:39 16.1 °C 11.7 °C 1013.4 hPa SSW 17.7 km/h 22.5 km/h 75% 0 mm 0.0 W/m2
02:44 15.9 °C 11.5 °C 1013.4 hPa SSW 22.7 km/h 22.7 km/h 75% 0 mm 0.0 W/m2
02:54 15.7 °C 11.5 °C 1013.4 hPa SSW 13 km/h 16.1 km/h 76% 0 mm 0.0 W/m2
02:59 15.7 °C 11.5 °C 1013.4 hPa SSW 13 km/h 14.5 km/h 76% 0 mm 0.0 W/m2
03:04 15.6 °C 11.4 °C 1013.4 hPa SSW 9.7 km/h 14.5 km/h 76% 0 mm 0.0 W/m2
03:14 15.6 °C 11.6 °C 1013.1 hPa SSW 7.9 km/h 9.7 km/h 77% 0 mm 0.0 W/m2
03:19 15.5 °C 11.5 °C 1013.4 hPa SSW 6.4 km/h 9.7 km/h 77% 0 mm 0.0 W/m2
03:24 15.4 °C 11.6 °C 1013.4 hPa SSW 7.9 km/h 8 km/h 78% 0 mm 0.0 W/m2
03:29 15.3 °C 11.5 °C 1013.4 hPa SSW 4.7 km/h 8 km/h 78% 0 mm 0.0 W/m2
03:35 15.3 °C 11.5 °C 1013.4 hPa SSW 9.7 km/h 9.7 km/h 78% 0 mm 0.0 W/m2
03:40 15.3 °C 11.7 °C 1013.4 hPa SSW 13 km/h 13 km/h 79% 0 mm 0.0 W/m2
03:45 15.2 °C 11.6 °C 1013.4 hPa SSW 14.3 km/h 14.5 km/h 79% 0 mm 0.0 W/m2
03:55 15.2 °C 11.4 °C 1013.4 hPa SSW 13 km/h 17.7 km/h 78% 0 mm 0.0 W/m2
04:00 15.2 °C 11.6 °C 1013.4 hPa SSW 11.1 km/h 16.1 km/h 79% 0 mm 0.0 W/m2
04:05 15.1 °C 11.5 °C 1013.4 hPa SSW 11.1 km/h 14.5 km/h 79% 0 mm 0.0 W/m2
04:10 15 °C 11.6 °C 1013.4 hPa SSW 13 km/h 13 km/h 80% 0 mm 0.0 W/m2
04:15 14.9 °C 11.3 °C 1013.4 hPa SSW 16.3 km/h 17.7 km/h 79% 0 mm 0.0 W/m2
04:25 14.9 °C 10.9 °C 1013.1 hPa SSW 17.7 km/h 20.9 km/h 77% 0 mm 0.0 W/m2
04:35 14.8 °C 11 °C 1013.4 hPa SSW 20.9 km/h 20.9 km/h 78% 0 mm 0.0 W/m2
04:40 14.8 °C 11 °C 1013.4 hPa South 17.7 km/h 19.3 km/h 78% 0 mm 0.0 W/m2
04:45 14.7 °C 10.9 °C 1013.4 hPa South 13 km/h 19.3 km/h 78% 0 mm 0.0 W/m2
04:50 14.7 °C 10.9 °C 1013.4 hPa SSW 14.3 km/h 19.3 km/h 78% 0 mm 0.0 W/m2
04:55 14.6 °C 10.8 °C 1013.4 hPa SSW 14.3 km/h 19.3 km/h 78% 0 mm 0.0 W/m2
05:00 14.6 °C 11 °C 1013.4 hPa SSW 13 km/h 16.1 km/h 79% 0 mm 0.0 W/m2
05:05 14.5 °C 10.9 °C 1013.4 hPa SSW 17.7 km/h 19.3 km/h 79% 0 mm 0.0 W/m2
05:15 14.4 °C 11 °C 1013.4 hPa SSW 16.3 km/h 19.3 km/h 80% 0 mm 0.0 W/m2
05:20 14.3 °C 10.9 °C 1013.4 hPa SSW 13 km/h 19.3 km/h 80% 0 mm 0.0 W/m2
05:30 14.2 °C 11 °C 1013.4 hPa SSW 11.1 km/h 16.1 km/h 81% 0 mm 0.0 W/m2
05:35 14.2 °C 11 °C 1013.4 hPa SSW 11.1 km/h 17.7 km/h 81% 0 mm 0.0 W/m2
05:40 14.1 °C 10.9 °C 1013.4 hPa SSW 14.3 km/h 16.1 km/h 81% 0 mm 0.0 W/m2
05:51 14.1 °C 10.9 °C 1013.8 hPa SSW 13 km/h 16.1 km/h 81% 0 mm 0.0 W/m2
06:00 14.1 °C 11.1 °C 1013.8 hPa SSW 11.1 km/h 16.1 km/h 82% 0 mm 0.0 W/m2
06:06 14 °C 11 °C 1014.1 hPa SSW 7.9 km/h 16.1 km/h 82% 0 mm 0.0 W/m2
06:13 14 °C 11 °C 1013.8 hPa SSW 19.5 km/h 22.5 km/h 82% 0 mm 0.0 W/m2
06:24 13.9 °C 11.1 °C 1014.1 hPa SSW 13 km/h 20.9 km/h 83% 0 mm 0.0 W/m2
06:34 13.8 °C 11 °C 1014.1 hPa SSW 13 km/h 19.3 km/h 83% 0 mm 0.0 W/m2
06:44 13.8 °C 11 °C 1014.1 hPa SSW 13 km/h 17.7 km/h 83% 0 mm 0.0 W/m2
06:54 13.8 °C 11.1 °C 1014.1 hPa SSW 13 km/h 17.7 km/h 84% 0 mm 0.0 W/m2
07:05 13.7 °C 11 °C 1014.4 hPa SSW 14.3 km/h 20.9 km/h 84% 0 mm 7.0 W/m2
07:15 13.7 °C 11.2 °C 1014.4 hPa SSW 16.3 km/h 17.7 km/h 85% 0 mm 12.0 W/m2
07:27 13.8 °C 11.3 °C 1014.4 hPa SSW 13 km/h 17.7 km/h 85% 0 mm 32.0 W/m2
07:39 14.1 °C 11.6 °C 1014.4 hPa SSW 11.1 km/h 20.9 km/h 85% 0 mm 83.0 W/m2
07:47 14.2 °C 11.5 °C 1014.8 hPa SSW 13 km/h 16.1 km/h 84% 0 mm 125.0 W/m2
07:57 14.4 °C 11.5 °C 1014.8 hPa SSW 13 km/h 17.7 km/h 83% 0 mm 171.0 W/m2
08:06 14.7 °C 11.7 °C 1014.8 hPa SSW 17.7 km/h 19.3 km/h 82% 0 mm 214.0 W/m2
08:12 14.8 °C 11.6 °C 1014.8 hPa SSW 17.7 km/h 22.5 km/h 81% 0 mm 236.0 W/m2
08:24 14.9 °C 11.7 °C 1014.8 hPa SSW 13 km/h 20.9 km/h 81% 0 mm 274.0 W/m2
08:40 15.4 °C 11.8 °C 1014.8 hPa SSW 19.5 km/h 22.5 km/h 79% 0 mm 346.0 W/m2
08:50 15.8 °C 12 °C 1015.1 hPa SSW 19.5 km/h 20.9 km/h 78% 0 mm 380.0 W/m2
09:00 15.9 °C 11.9 °C 1015.1 hPa SSW 16.3 km/h 20.9 km/h 77% 0 mm 415.0 W/m2
09:16 16.3 °C 12.1 °C 1015.1 hPa SSW 14.3 km/h 22.5 km/h 76% 0 mm 448.0 W/m2
09:20 16.7 °C 12 °C 1015.1 hPa SSW 16.3 km/h 22.5 km/h 74% 0 mm 483.0 W/m2
09:30 17.1 °C 12 °C 1015.1 hPa SSW 19.5 km/h 22.5 km/h 72% 0 mm 512.0 W/m2
09:40 17.6 °C 11.8 °C 1015.1 hPa SSW 17.7 km/h 25.7 km/h 69% 0 mm 545.0 W/m2
09:50 18.2 °C 12 °C 1015.1 hPa SSW 13 km/h 24.1 km/h 67% 0 mm 573.0 W/m2
10:09 18.9 °C 12.2 °C 1015.5 hPa SSW 13 km/h 22.5 km/h 65% 0 mm 617.0 W/m2
10:17 19.3 °C 11.8 °C 1015.5 hPa SSW 20.9 km/h 25.7 km/h 62% 0 mm 643.0 W/m2
12:38 24.2 °C 9.7 °C 1014.4 hPa South 22.7 km/h 25.7 km/h 40% 0 mm 856.0 W/m2
12:46 24.3 °C 9.8 °C 1014.1 hPa SSW 17.7 km/h 30.6 km/h 40% 0 mm 860.0 W/m2
13:02 24.7 °C 9.8 °C 1014.1 hPa SW 19.5 km/h 30.6 km/h 39% 0 mm 863.0 W/m2
13:06 24.8 °C 9.5 °C 1014.1 hPa South 25.9 km/h 30.6 km/h 38% 0 mm 861.0 W/m2
13:22 25.1 °C 9.4 °C 1013.8 hPa SSW 20.9 km/h 27.4 km/h 37% 0 mm 856.0 W/m2
13:26 25.2 °C 9.9 °C 1013.8 hPa SSW 14.3 km/h 24.1 km/h 38% 0 mm 849.0 W/m2
13:36 25.4 °C 9.2 °C 1013.4 hPa SSW 22.7 km/h 27.4 km/h 36% 0 mm 844.0 W/m2
13:45 25.7 °C 9.1 °C 1013.4 hPa SSW 17.7 km/h 20.9 km/h 35% 0 mm 838.0 W/m2
13:55 25.7 °C 8.7 °C 1013.4 hPa SSW 17.7 km/h 19.3 km/h 34% 0 mm 830.0 W/m2
13:56 25.9 °C 8.8 °C 1013.4 hPa South 14.3 km/h 24.1 km/h 34% 0 mm 824.0 W/m2
14:01 25.8 °C 8.3 °C 1013.1 hPa South 16.3 km/h 22.5 km/h 33% 0 mm 817.0 W/m2
14:09 25.9 °C 7.5 °C 1013.1 hPa SSW 13 km/h 24.1 km/h 31% 0 mm 810.0 W/m2
18:07 25.9 °C 7.9 °C 1012.8 hPa South 16.3 km/h 22.5 km/h 32% 0 mm 98.0 W/m2
18:29 25.7 °C 8.2 °C 1012.8 hPa SSE 17.7 km/h 19.3 km/h 33% 0 mm 47.0 W/m2
18:39 25.5 °C 8.5 °C 1013.1 hPa SSE 19.5 km/h 27.4 km/h 34% 0 mm 19.0 W/m2
18:48 25 °C 9.3 °C 1013.1 hPa SSE 16.3 km/h 25.7 km/h 37% 0 mm 7.0 W/m2
18:58 24.8 °C 9.5 °C 1013.1 hPa SSE 19.5 km/h 20.9 km/h 38% 0 mm 0.0 W/m2
19:08 24.7 °C 9.8 °C 1013.4 hPa South 17.7 km/h 20.9 km/h 39% 0 mm 0.0 W/m2
19:23 24.5 °C 9.2 °C 1013.4 hPa SSE 20.9 km/h 24.1 km/h 38% 0 mm 0.0 W/m2
19:44 24.3 °C 8.7 °C 1013.4 hPa SSE 19.5 km/h 22.5 km/h 37% 0 mm 0.0 W/m2
19:53 24.2 °C 8.6 °C 1013.8 hPa South 19.5 km/h 20.9 km/h 37% 0 mm 0.0 W/m2
20:02 24.1 °C 8.1 °C 1013.8 hPa South 11.1 km/h 20.9 km/h 36% 0 mm 0.0 W/m2
20:12 23.9 °C 7.9 °C 1014.1 hPa South 14.3 km/h 17.7 km/h 36% 0 mm 0.0 W/m2
20:22 23.7 °C 7.7 °C 1014.1 hPa South 17.7 km/h 24.1 km/h 36% 0 mm 0.0 W/m2
20:24 23.6 °C 8.1 °C 1014.4 hPa South 20.9 km/h 22.5 km/h 37% 0 mm 0.0 W/m2
20:39 23.2 °C 8.1 °C 1014.4 hPa SSE 14.3 km/h 19.3 km/h 38% 0 mm 0.0 W/m2
20:44 22.7 °C 7.6 °C 1014.8 hPa South 17.7 km/h 20.9 km/h 38% 0 mm 0.0 W/m2
20:54 22 °C 7 °C 1015.1 hPa South 17.7 km/h 27.4 km/h 38% 0 mm 0.0 W/m2
21:08 21.7 °C 6.8 °C 1015.1 hPa South 24.1 km/h 24.1 km/h 38% 0 mm 0.0 W/m2
21:09 21.6 °C 6.7 °C 1015.1 hPa South 27.4 km/h 29 km/h 38% 0 mm 0.0 W/m2
21:25 21.3 °C 6.4 °C 1015.1 hPa South 17.7 km/h 29 km/h 38% 0 mm 0.0 W/m2
21:34 21 °C 6.5 °C 1015.5 hPa South 16.3 km/h 17.7 km/h 39% 0 mm 0.0 W/m2
21:39 20.9 °C 6.4 °C 1015.5 hPa South 17.7 km/h 20.9 km/h 39% 0 mm 0.0 W/m2
Canyon Roadhouse, Fishriver Canyon, Namibia
Compliments of Weather Underground - 2 mb